createdAt,value
2018-03-31T00:01:16.885Z,21.47
2018-03-31T00:03:44.716Z,24.30
2018-03-31T00:06:12.418Z,23.40
2018-03-31T00:08:40.653Z,23.20
2018-03-31T00:11:09.336Z,25.37
2018-03-31T00:13:37.210Z,21.87
2018-03-31T00:16:05.533Z,26.87
2018-03-31T00:18:33.604Z,29.50
2018-03-31T00:21:01.432Z,22.57
2018-03-31T00:23:29.289Z,21.43
2018-03-31T00:25:57.197Z,26.30
2018-03-31T00:28:24.861Z,20.20
2018-03-31T00:30:52.515Z,24.37
2018-03-31T00:33:20.186Z,29.10
2018-03-31T00:35:47.849Z,25.10
2018-03-31T00:38:15.666Z,22.97
2018-03-31T00:40:43.789Z,22.63
2018-03-31T00:43:11.622Z,23.70
2018-03-31T00:45:39.522Z,18.57
2018-03-31T00:48:07.240Z,26.03
2018-03-31T00:50:34.839Z,24.50
2018-03-31T00:53:03.042Z,22.97
2018-03-31T00:55:30.804Z,21.57
2018-03-31T00:57:58.631Z,24.70
2018-03-31T01:00:26.659Z,25.20
2018-03-31T01:02:54.376Z,23.27
2018-03-31T01:05:22.211Z,24.70
2018-03-31T01:07:50.320Z,29.77
2018-03-31T01:10:17.979Z,19.33
2018-03-31T01:12:45.856Z,25.73
2018-03-31T01:15:13.342Z,25.87
2018-03-31T01:17:40.967Z,24.80
2018-03-31T01:20:08.885Z,20.77
2018-03-31T01:22:36.849Z,23.87
2018-03-31T01:25:04.562Z,19.90
2018-03-31T01:27:32.435Z,27.43
2018-03-31T01:30:00.089Z,21.43
2018-03-31T01:32:27.911Z,24.27
2018-03-31T01:34:55.652Z,21.60
2018-03-31T01:37:23.322Z,23.47
2018-03-31T01:39:50.940Z,25.93
2018-03-31T01:42:18.612Z,25.60
2018-03-31T01:44:46.192Z,24.67
2018-03-31T01:47:14.149Z,23.13
2018-03-31T01:49:41.847Z,22.17
2018-03-31T01:52:09.662Z,25.23
2018-03-31T01:54:37.528Z,23.67
2018-03-31T01:57:05.194Z,24.20
2018-03-31T01:59:33.046Z,23.70
2018-03-31T02:02:00.721Z,20.63
2018-03-31T02:04:28.379Z,26.70
2018-03-31T02:06:56.205Z,25.57
2018-03-31T02:09:23.908Z,25.30
2018-03-31T02:11:51.778Z,23.90
2018-03-31T02:14:19.605Z,21.80
2018-03-31T02:16:47.569Z,23.27
2018-03-31T02:19:15.244Z,22.00
2018-03-31T02:21:42.826Z,27.20
2018-03-31T02:24:10.640Z,25.17
2018-03-31T02:26:38.755Z,25.83
2018-03-31T02:29:06.594Z,27.43
2018-03-31T02:31:34.569Z,26.03
2018-03-31T02:34:02.220Z,31.00
2018-03-31T02:36:30.095Z,23.10
2018-03-31T02:38:57.692Z,28.43
2018-03-31T02:41:25.774Z,24.87
2018-03-31T02:43:54.043Z,25.13
2018-03-31T02:46:22.106Z,22.30
2018-03-31T02:48:50.022Z,22.40
2018-03-31T02:51:17.816Z,22.77
2018-03-31T02:53:45.904Z,22.87
2018-03-31T02:56:13.568Z,21.73
2018-03-31T02:58:41.439Z,30.70
2018-03-31T03:01:09.680Z,23.63
2018-03-31T03:03:37.590Z,23.93
2018-03-31T03:06:05.461Z,22.80
2018-03-31T03:08:33.174Z,24.10
2018-03-31T03:11:00.778Z,28.30
2018-03-31T03:13:28.588Z,22.93
2018-03-31T03:15:56.305Z,20.13
2018-03-31T03:18:23.965Z,23.07
2018-03-31T03:20:51.624Z,24.20
2018-03-31T03:23:19.497Z,20.83
2018-03-31T03:25:47.151Z,24.30
2018-03-31T03:28:15.024Z,22.00
2018-03-31T03:30:42.839Z,37.40
2018-03-31T03:33:10.830Z,24.50
2018-03-31T03:35:38.622Z,25.93
2018-03-31T03:38:06.287Z,23.57
2018-03-31T03:40:34.056Z,21.57
2018-03-31T03:43:02.608Z,23.20
2018-03-31T03:45:30.899Z,26.30
2018-03-31T03:47:58.945Z,25.43
2018-03-31T03:50:26.420Z,21.73
2018-03-31T03:52:54.302Z,20.90
2018-03-31T03:55:22.171Z,23.83
2018-03-31T03:57:49.982Z,23.90
2018-03-31T04:03:13.137Z,23.43
2018-03-31T04:05:40.513Z,21.17
2018-03-31T04:08:07.884Z,26.10
2018-03-31T04:10:35.240Z,20.97
2018-03-31T04:13:02.612Z,20.90
2018-03-31T04:15:30.090Z,23.67
2018-03-31T04:17:57.468Z,26.70
2018-03-31T04:20:24.860Z,23.17
2018-03-31T04:22:52.233Z,28.47
2018-03-31T04:25:19.666Z,27.23
2018-03-31T04:27:47.024Z,20.33
2018-03-31T04:30:14.448Z,22.07
2018-03-31T04:32:41.799Z,24.30
2018-03-31T04:35:09.570Z,21.70
2018-03-31T04:37:36.917Z,24.50
2018-03-31T04:40:04.313Z,19.47
2018-03-31T04:42:31.657Z,19.67
2018-03-31T04:44:59.047Z,25.97
2018-03-31T04:47:26.604Z,21.83
2018-03-31T04:49:54.389Z,21.60
2018-03-31T04:52:22.468Z,21.00
2018-03-31T04:54:49.810Z,21.57
2018-03-31T04:57:17.177Z,26.40
2018-03-31T04:59:44.768Z,24.83
2018-03-31T05:02:12.165Z,22.17
2018-03-31T05:04:39.832Z,23.40
2018-03-31T05:07:07.281Z,23.13
2018-03-31T05:09:34.645Z,22.23
2018-03-31T05:12:02.053Z,28.13
2018-03-31T05:14:29.757Z,23.63
2018-03-31T05:16:57.352Z,20.93
2018-03-31T05:19:24.794Z,22.13
2018-03-31T05:21:53.311Z,24.20
2018-03-31T05:24:21.025Z,22.50
2018-03-31T05:26:49.832Z,23.97
2018-03-31T05:29:18.257Z,25.27
2018-03-31T05:31:46.068Z,24.83
2018-03-31T05:34:14.257Z,26.50
2018-03-31T05:36:41.979Z,22.13
2018-03-31T05:39:10.417Z,23.07
2018-03-31T05:41:38.349Z,24.30
2018-03-31T05:44:06.637Z,21.97
2018-03-31T05:46:34.307Z,24.17
2018-03-31T05:49:01.679Z,25.17
2018-03-31T05:51:29.081Z,25.70
2018-03-31T05:53:56.556Z,26.73
2018-03-31T05:56:23.941Z,23.53
2018-03-31T05:58:51.431Z,26.00
2018-03-31T06:01:18.794Z,23.10
2018-03-31T06:03:46.168Z,24.63
2018-03-31T06:06:13.545Z,26.90
2018-03-31T06:08:41.052Z,19.17
2018-03-31T06:11:08.414Z,23.93
2018-03-31T06:13:35.953Z,22.93
2018-03-31T06:16:03.300Z,24.00
2018-03-31T06:18:30.660Z,26.57
2018-03-31T06:20:58.147Z,23.73
2018-03-31T06:23:25.539Z,20.70
2018-03-31T06:25:52.890Z,22.63
2018-03-31T06:28:20.424Z,25.00
2018-03-31T06:30:47.762Z,23.40
2018-03-31T06:33:15.125Z,24.87
2018-03-31T06:35:42.489Z,23.00
2018-03-31T06:38:10.093Z,27.37
2018-03-31T06:40:37.464Z,30.07
2018-03-31T06:43:04.809Z,27.50
2018-03-31T06:45:32.266Z,25.50
2018-03-31T06:47:59.606Z,27.40
2018-03-31T06:50:26.960Z,27.20
2018-03-31T06:52:54.292Z,27.70
2018-03-31T06:55:21.779Z,35.13
2018-03-31T06:57:49.331Z,29.87
2018-03-31T07:00:16.708Z,33.00
2018-03-31T07:02:44.048Z,32.43
2018-03-31T07:05:11.413Z,30.30
2018-03-31T07:07:38.833Z,28.70
2018-03-31T07:10:06.249Z,32.23
2018-03-31T07:12:33.625Z,31.70
2018-03-31T07:15:01.029Z,27.07
2018-03-31T07:17:28.426Z,28.50
2018-03-31T07:19:55.792Z,32.20
2018-03-31T07:22:23.170Z,30.67
2018-03-31T07:24:50.520Z,27.83
2018-03-31T07:27:18.085Z,27.80
2018-03-31T07:29:45.468Z,28.47
2018-03-31T07:32:12.939Z,32.73
2018-03-31T07:34:40.276Z,31.17
2018-03-31T07:37:07.753Z,33.40
2018-03-31T07:39:35.101Z,32.17
2018-03-31T07:42:02.508Z,33.90
2018-03-31T07:44:32.765Z,28.87
2018-03-31T07:47:00.144Z,32.33
2018-03-31T07:49:27.497Z,31.40
2018-03-31T07:51:54.919Z,28.40
2018-03-31T07:54:25.044Z,30.43
2018-03-31T07:56:52.433Z,29.90
2018-03-31T07:59:19.760Z,29.27
2018-03-31T08:01:47.165Z,32.77
2018-03-31T08:04:14.501Z,32.53
2018-03-31T08:06:41.926Z,32.47
2018-03-31T08:09:09.303Z,32.80
2018-03-31T08:11:36.712Z,33.83
2018-03-31T08:14:04.049Z,31.17
2018-03-31T08:16:31.450Z,33.80
2018-03-31T08:18:58.772Z,32.30
2018-03-31T08:21:26.232Z,29.50
2018-03-31T08:23:53.755Z,34.50
2018-03-31T08:26:21.130Z,31.90
2018-03-31T08:28:48.456Z,30.73
2018-03-31T08:31:15.847Z,32.20
2018-03-31T08:33:43.172Z,30.60
2018-03-31T08:36:10.577Z,31.03
2018-03-31T08:38:37.940Z,33.70
2018-03-31T08:41:05.330Z,32.90
2018-03-31T08:43:32.704Z,32.57
2018-03-31T08:46:00.126Z,33.60
2018-03-31T08:48:27.502Z,29.20
2018-03-31T08:50:54.896Z,36.73
2018-03-31T08:53:22.243Z,34.20
2018-03-31T08:55:49.704Z,33.27
2018-03-31T08:58:17.052Z,36.77
2018-03-31T09:00:44.425Z,33.80
2018-03-31T09:03:11.934Z,35.37
2018-03-31T09:05:39.411Z,36.33
2018-03-31T09:08:06.789Z,35.50
2018-03-31T09:10:34.132Z,36.07
2018-03-31T09:13:01.502Z,33.07
2018-03-31T09:15:28.859Z,36.97
2018-03-31T09:17:56.232Z,32.00
2018-03-31T09:20:23.818Z,39.10
2018-03-31T09:22:51.308Z,35.87
2018-03-31T09:25:18.648Z,31.00
2018-03-31T09:27:46.045Z,36.30
2018-03-31T09:30:13.397Z,35.20
2018-03-31T09:32:40.761Z,34.27
2018-03-31T09:35:08.120Z,32.63
2018-03-31T09:37:35.630Z,36.03
2018-03-31T09:40:03.024Z,37.03
2018-03-31T09:42:30.420Z,33.33
2018-03-31T09:44:57.841Z,44.60
2018-03-31T09:47:25.216Z,37.90
2018-03-31T09:49:52.621Z,37.27
2018-03-31T09:52:20.213Z,47.90
2018-03-31T09:54:47.572Z,36.57
2018-03-31T09:57:14.917Z,45.33
2018-03-31T09:59:42.329Z,33.47
2018-03-31T10:02:09.677Z,36.83
2018-03-31T10:04:43.520Z,38.00
2018-03-31T10:07:10.889Z,41.20
2018-03-31T10:09:38.300Z,34.60
2018-03-31T10:12:05.879Z,37.47
2018-03-31T10:14:33.268Z,37.07
2018-03-31T10:17:00.739Z,36.40
2018-03-31T10:19:28.116Z,42.33
2018-03-31T10:21:55.501Z,39.07
2018-03-31T10:24:22.973Z,42.93
2018-03-31T10:26:50.724Z,39.63
2018-03-31T10:29:18.154Z,40.47
2018-03-31T10:31:45.513Z,39.30
2018-03-31T10:34:12.840Z,39.53
2018-03-31T10:36:40.244Z,39.80
2018-03-31T10:39:07.768Z,38.23
2018-03-31T10:41:35.516Z,40.17
2018-03-31T10:44:02.865Z,38.80
2018-03-31T10:46:30.292Z,46.73
2018-03-31T10:48:57.612Z,38.30
2018-03-31T10:51:24.980Z,42.47
2018-03-31T10:53:52.343Z,36.27
2018-03-31T10:56:19.716Z,34.43
2018-03-31T10:58:47.097Z,36.73
2018-03-31T11:01:14.474Z,43.60
2018-03-31T11:03:41.836Z,39.03
2018-03-31T11:06:09.221Z,35.47
2018-03-31T11:08:36.572Z,39.77
2018-03-31T11:11:03.992Z,36.23
2018-03-31T11:13:31.373Z,35.77
2018-03-31T11:15:58.933Z,37.03
2018-03-31T11:18:26.341Z,33.87
2018-03-31T11:20:53.713Z,35.73
2018-03-31T11:23:21.056Z,43.47
2018-03-31T11:25:55.237Z,33.33
2018-03-31T11:28:22.620Z,33.87
2018-03-31T11:30:50.122Z,39.40
2018-03-31T11:33:17.466Z,35.57
2018-03-31T11:35:44.835Z,35.17
2018-03-31T11:38:12.216Z,34.17
2018-03-31T11:40:39.577Z,36.17
2018-03-31T11:43:07.061Z,35.90
2018-03-31T11:45:34.405Z,38.93
2018-03-31T11:48:01.770Z,31.20
2018-03-31T11:50:29.167Z,37.27
2018-03-31T11:52:56.564Z,33.60
2018-03-31T11:55:23.932Z,35.80
2018-03-31T11:57:51.284Z,34.83
2018-03-31T12:00:18.648Z,35.57
2018-03-31T12:02:46.004Z,34.20
2018-03-31T12:05:13.369Z,33.87
2018-03-31T12:07:40.773Z,36.97
2018-03-31T12:10:08.143Z,37.07
2018-03-31T12:12:35.504Z,35.30
2018-03-31T12:15:03.071Z,34.90
2018-03-31T12:17:30.447Z,34.67
2018-03-31T12:19:57.799Z,34.33
2018-03-31T12:22:25.209Z,34.97
2018-03-31T12:24:53.122Z,36.77
2018-03-31T12:27:20.492Z,39.00
2018-03-31T12:32:21.489Z,37.00
2018-03-31T12:34:48.933Z,40.30
2018-03-31T12:37:16.335Z,37.47
2018-03-31T12:39:43.780Z,34.80
2018-03-31T12:42:11.212Z,41.93
2018-03-31T12:44:38.850Z,33.43
2018-03-31T12:47:06.345Z,36.27
2018-03-31T12:49:33.749Z,37.00
2018-03-31T12:52:03.743Z,37.63
2018-03-31T12:54:31.542Z,33.07
2018-03-31T12:56:58.912Z,37.27
2018-03-31T12:59:27.004Z,32.80
2018-03-31T13:01:54.356Z,36.17
2018-03-31T13:04:21.735Z,37.07
2018-03-31T13:06:49.089Z,37.90
2018-03-31T13:09:16.476Z,36.47
2018-03-31T13:11:43.839Z,35.60
2018-03-31T13:14:11.253Z,40.87
2018-03-31T13:16:38.601Z,35.27
2018-03-31T13:19:05.971Z,34.90
2018-03-31T13:21:33.381Z,37.23
2018-03-31T13:24:00.812Z,36.97
2018-03-31T13:26:28.181Z,33.70
2018-03-31T13:28:55.565Z,39.30
2018-03-31T13:31:22.969Z,37.10
2018-03-31T13:33:50.361Z,39.90
2018-03-31T13:36:17.741Z,41.30
2018-03-31T13:38:45.140Z,37.37
2018-03-31T13:41:15.288Z,35.63
2018-03-31T13:43:42.633Z,36.17
2018-03-31T13:46:10.010Z,34.80
2018-03-31T13:48:37.400Z,32.60
2018-03-31T13:51:04.752Z,39.07
2018-03-31T13:53:32.085Z,36.97
2018-03-31T13:55:59.432Z,33.47
2018-03-31T13:58:26.773Z,38.30
2018-03-31T14:00:54.142Z,36.57
2018-03-31T14:03:21.523Z,34.50
2018-03-31T14:05:48.904Z,37.40
2018-03-31T14:08:19.038Z,37.23
2018-03-31T14:10:46.473Z,43.83
2018-03-31T14:13:20.257Z,38.87
2018-03-31T14:15:47.641Z,40.57
2018-03-31T14:18:14.973Z,39.93
2018-03-31T14:20:42.573Z,39.27
2018-03-31T14:23:09.973Z,45.13
2018-03-31T14:25:37.436Z,41.63
2018-03-31T14:28:04.764Z,43.50
2018-03-31T14:30:32.136Z,40.47
2018-03-31T14:32:59.532Z,42.93
2018-03-31T14:35:26.982Z,41.50
2018-03-31T14:37:54.446Z,40.80
2018-03-31T14:40:21.832Z,42.87
2018-03-31T14:42:49.180Z,44.33
2018-03-31T14:45:16.559Z,44.77
2018-03-31T14:47:43.925Z,41.90
2018-03-31T14:50:11.320Z,42.43
2018-03-31T14:52:38.933Z,43.87
2018-03-31T14:55:06.350Z,39.63
2018-03-31T14:57:33.713Z,39.90
2018-03-31T15:00:01.212Z,45.53
2018-03-31T15:02:28.656Z,45.40
2018-03-31T15:04:56.061Z,45.20
2018-03-31T15:07:23.433Z,46.27
2018-03-31T15:09:50.778Z,38.53
2018-03-31T15:12:18.116Z,42.43
2018-03-31T15:14:45.451Z,44.90
2018-03-31T15:17:12.809Z,44.50
2018-03-31T15:19:40.136Z,46.13
2018-03-31T15:22:07.620Z,46.90
2018-03-31T15:24:35.003Z,43.77
2018-03-31T15:27:02.434Z,42.57
2018-03-31T15:29:29.946Z,41.00
2018-03-31T15:31:57.374Z,49.40
2018-03-31T15:34:24.749Z,41.97
2018-03-31T15:36:52.145Z,44.57
2018-03-31T15:39:19.635Z,42.87
2018-03-31T15:41:46.980Z,45.93
2018-03-31T15:44:14.334Z,45.57
2018-03-31T15:46:41.762Z,42.57
2018-03-31T15:49:09.096Z,44.70
2018-03-31T15:51:36.462Z,48.43
2018-03-31T15:54:03.825Z,49.57
2018-03-31T15:56:31.178Z,56.70
2018-03-31T15:58:58.542Z,58.47
2018-03-31T16:01:25.950Z,47.40
2018-03-31T16:03:53.411Z,49.47
2018-03-31T16:06:20.764Z,56.37
2018-03-31T16:08:48.132Z,50.77
2018-03-31T16:11:15.584Z,49.63
2018-03-31T16:13:43.241Z,49.30
2018-03-31T16:16:10.774Z,49.07
2018-03-31T16:18:38.150Z,53.53
2018-03-31T16:21:05.508Z,44.83
2018-03-31T16:23:32.897Z,50.67
2018-03-31T16:26:00.499Z,48.93
2018-03-31T16:28:28.062Z,47.90
2018-03-31T16:30:55.425Z,45.20
2018-03-31T16:33:22.760Z,44.80
2018-03-31T16:35:50.108Z,47.20
2018-03-31T16:38:17.481Z,42.83
2018-03-31T16:40:44.833Z,43.10
2018-03-31T16:43:12.201Z,45.40
2018-03-31T16:45:39.563Z,48.93
2018-03-31T16:48:06.908Z,49.67
2018-03-31T16:50:34.245Z,45.57
2018-03-31T16:53:01.598Z,48.30
2018-03-31T16:55:28.964Z,47.00
2018-03-31T16:57:56.607Z,46.43
2018-03-31T17:00:24.267Z,48.43
2018-03-31T17:02:51.688Z,47.00
2018-03-31T17:05:19.134Z,45.77
2018-03-31T17:07:46.570Z,44.30
2018-03-31T17:10:13.981Z,43.63
2018-03-31T17:12:41.341Z,45.27
2018-03-31T17:15:08.692Z,49.83
2018-03-31T17:17:36.232Z,49.00
2018-03-31T17:20:03.620Z,52.90
2018-03-31T17:22:30.983Z,46.90
2018-03-31T17:24:58.303Z,46.37
2018-03-31T17:27:26.049Z,47.37
2018-03-31T17:29:53.425Z,46.90
2018-03-31T17:32:20.845Z,46.53
2018-03-31T17:34:48.218Z,49.53
2018-03-31T17:37:15.587Z,45.70
2018-03-31T17:39:42.985Z,49.93
2018-03-31T17:42:10.546Z,53.80
2018-03-31T17:44:38.202Z,52.60
2018-03-31T17:47:05.620Z,49.93
2018-03-31T17:49:33.019Z,60.23
2018-03-31T17:52:00.394Z,66.83
2018-03-31T17:54:27.769Z,69.67
2018-03-31T17:56:55.150Z,69.37
2018-03-31T17:59:22.760Z,71.13
2018-03-31T18:01:50.183Z,63.37
2018-03-31T18:04:17.602Z,60.97
2018-03-31T18:06:45.028Z,62.57
2018-03-31T18:09:12.411Z,67.50
2018-03-31T18:11:39.781Z,60.73
2018-03-31T18:14:07.156Z,62.63
2018-03-31T18:16:34.523Z,59.60
2018-03-31T18:19:01.864Z,66.40
2018-03-31T18:21:29.237Z,63.07
2018-03-31T18:23:56.588Z,54.80
2018-03-31T18:26:24.003Z,57.57
2018-03-31T18:28:51.418Z,52.63
2018-03-31T18:31:18.942Z,53.60
2018-03-31T18:33:46.532Z,51.50
2018-03-31T18:36:13.947Z,52.20
2018-03-31T18:38:41.321Z,54.10
2018-03-31T18:41:08.700Z,57.57
2018-03-31T18:43:36.056Z,52.20
2018-03-31T18:46:03.466Z,53.67
2018-03-31T18:48:30.906Z,57.07
2018-03-31T18:50:58.267Z,55.40
2018-03-31T18:53:25.632Z,52.50
2018-03-31T18:55:53.027Z,53.33
2018-03-31T18:58:20.422Z,49.90
2018-03-31T19:00:47.839Z,50.70
2018-03-31T19:03:15.221Z,50.80
2018-03-31T19:05:42.626Z,50.30
2018-03-31T19:08:10.223Z,47.83
2018-03-31T19:10:37.689Z,52.00
2018-03-31T19:13:05.140Z,46.37
2018-03-31T19:15:32.505Z,45.20
2018-03-31T19:17:59.868Z,46.37
2018-03-31T19:20:27.278Z,45.40
2018-03-31T19:22:54.843Z,46.00
2018-03-31T19:25:26.511Z,51.80
2018-03-31T19:27:53.904Z,43.47
2018-03-31T19:30:25.487Z,43.43
2018-03-31T19:32:52.851Z,40.90
2018-03-31T19:35:20.224Z,44.47
2018-03-31T19:37:47.734Z,43.37
2018-03-31T19:40:15.094Z,40.23
2018-03-31T19:42:42.501Z,36.40
2018-03-31T19:45:09.907Z,36.90
2018-03-31T19:47:37.269Z,40.33
2018-03-31T19:50:04.914Z,41.27
2018-03-31T19:52:32.309Z,39.10
2018-03-31T19:54:59.693Z,36.00
2018-03-31T19:57:27.069Z,42.90
2018-03-31T19:59:54.414Z,48.13
2018-03-31T20:02:21.800Z,47.20
2018-03-31T20:04:49.270Z,42.80
2018-03-31T20:07:16.801Z,48.97
2018-03-31T20:09:44.176Z,45.80
2018-03-31T20:12:11.581Z,48.07
2018-03-31T20:14:38.962Z,53.60
2018-03-31T20:17:06.749Z,46.00
2018-03-31T20:19:39.853Z,44.80
2018-03-31T20:22:07.305Z,51.33
2018-03-31T20:24:34.744Z,48.57
2018-03-31T20:27:02.125Z,49.63
2018-03-31T20:29:29.962Z,48.27
2018-03-31T20:31:57.372Z,49.97
2018-03-31T20:34:25.700Z,50.60
2018-03-31T20:36:53.113Z,43.40
2018-03-31T20:39:20.468Z,46.17
2018-03-31T20:41:47.882Z,42.53
2018-03-31T20:44:15.225Z,39.60
2018-03-31T20:46:42.748Z,42.20
2018-03-31T20:49:10.094Z,41.13
2018-03-31T20:51:37.558Z,39.40
2018-03-31T20:54:04.925Z,34.30
2018-03-31T20:56:32.423Z,38.37
2018-03-31T20:58:59.745Z,36.77
2018-03-31T21:01:27.154Z,38.30
2018-03-31T21:03:54.569Z,35.17
2018-03-31T21:06:21.952Z,35.30
2018-03-31T21:08:49.314Z,35.00
2018-03-31T21:11:16.896Z,31.40
2018-03-31T21:13:44.261Z,32.03
2018-03-31T21:16:11.637Z,28.47
2018-03-31T21:18:39.181Z,31.87
2018-03-31T21:21:06.667Z,31.17
2018-03-31T21:23:34.020Z,31.50
2018-03-31T21:26:01.497Z,37.30
2018-03-31T21:28:28.861Z,33.40
2018-03-31T21:30:56.258Z,36.40
2018-03-31T21:33:23.617Z,31.87
2018-03-31T21:35:51.012Z,31.27
2018-03-31T21:38:18.409Z,34.00
2018-03-31T21:40:46.002Z,32.27
2018-03-31T21:43:13.360Z,31.80
2018-03-31T21:45:40.855Z,29.30
2018-03-31T21:48:08.441Z,28.20
2018-03-31T21:50:36.174Z,25.57
2018-03-31T21:53:03.554Z,32.10
2018-03-31T21:55:30.939Z,30.70
2018-03-31T21:57:58.272Z,30.97
2018-03-31T22:00:29.406Z,32.30
2018-03-31T22:02:56.889Z,29.73
2018-03-31T22:05:24.300Z,28.00
2018-03-31T22:07:51.697Z,27.03
2018-03-31T22:10:19.148Z,30.63
2018-03-31T22:12:46.578Z,29.00
2018-03-31T22:15:19.226Z,26.13
2018-03-31T22:17:46.639Z,24.83
2018-03-31T22:20:13.992Z,23.30
2018-03-31T22:22:40.741Z,21.93
2018-03-31T22:25:08.124Z,24.47
2018-03-31T22:27:35.592Z,20.90
2018-03-31T22:30:03.506Z,23.83
2018-03-31T22:32:30.880Z,21.00
2018-03-31T22:34:58.207Z,20.23
2018-03-31T22:37:25.636Z,21.47
2018-03-31T22:39:52.984Z,22.53
2018-03-31T22:42:20.570Z,21.60
2018-03-31T22:44:47.967Z,18.80
2018-03-31T22:47:15.338Z,19.60
2018-03-31T22:49:42.950Z,18.10
2018-03-31T22:52:10.317Z,17.53
2018-03-31T22:54:37.793Z,18.40
2018-03-31T22:57:05.209Z,18.17
2018-03-31T22:59:32.969Z,17.30
2018-03-31T23:02:00.378Z,20.57
2018-03-31T23:04:27.769Z,19.93
2018-03-31T23:06:55.147Z,15.27
2018-03-31T23:09:22.558Z,12.50
2018-03-31T23:11:50.184Z,12.83
2018-03-31T23:14:17.596Z,13.40
2018-03-31T23:16:44.986Z,11.93
2018-03-31T23:19:12.379Z,12.20
2018-03-31T23:21:39.750Z,11.73
2018-03-31T23:24:07.130Z,12.50
2018-03-31T23:26:34.495Z,11.97
2018-03-31T23:29:02.115Z,11.90
2018-03-31T23:31:29.464Z,14.07
2018-03-31T23:33:56.804Z,13.47
2018-03-31T23:36:24.162Z,15.10
2018-03-31T23:38:51.496Z,11.10
2018-03-31T23:41:18.844Z,11.13
2018-03-31T23:43:46.219Z,12.47
2018-03-31T23:46:13.651Z,12.80
2018-03-31T23:48:41.127Z,13.00
2018-03-31T23:51:08.491Z,11.63
2018-03-31T23:53:35.828Z,12.90
2018-03-31T23:56:03.234Z,13.20
2018-03-31T23:58:30.577Z,10.90
